Zografos, Greece
Current Conditions -  °F | °C
As of 5:50 PM on Monday 22 Dec 2014 (Local Time) from LGTS Reporting Station
Clear Clear  
Wind Chill: 50°   Ceiling: Unl
Heat Index: 50°   Visibility: 6mi
Dew Point: 25°   Wind: 7mph
Humidity: 37%   Direction: 250°WSW
Pressure: 30.33"   Gusts: NA
Location:  40.28°N, 23.25°E
Report Text: LGTS 221450Z 25006KT CAVOK 10/M04 Q1027 NOSIG
Loading
Personal Weather Stations






























Interactive Weather Map New forecast layout! Learn more

10-Day Weather Forecast

Advertisements
Track Severe Weather on mobile